Strona główna
METAR-TAF:

METAR-TAF

Lotnisko :

Morristown, New Jersey, Stany Zjednoczone

Szerokość geograficzna: 40-48N, Długość geograficzna: 074-25W, wysokość: 57 m

Aktualna obserwacja pogody

Raport powstał 53 minut temu, godzina 00:51 UTC
Wiatr 7 kt od północ
Temperatura 10°C
Wilgotność 93%
Ciśnienie 1011 hPa
Widzialność: 11.3 km
Przerywane chmury na wysokości 7000 ft
Zachmurzenie całkowite na wysokości 9000 ft
słaby deszcz

METAR: KMMU 040051Z 01007KT 7SM -RA BKN070 OVC090 10/09 A2985

czas: 21:44 (01:44 UTC)


TAF: brakujący

Obserwacja i prognoza pogody dla ponad 4000 lotnisk (raport METAR i TAF).

Dostępne stacje oznaczono żółtymi i czerwonymi punktami na mapie.

Najedź kursorem aby zobaczyć nazwę stacji.

Kliknij aby zobaczyć obserwacje i prognozy pogody.

Aby zmienić mapę: kliknij na zielony przycisk z czarnym krzyżykiem, aby powiększyć; na zielony przycisk z myślnikiem, aby pomniejszyć; na zielone strzałki, aby przejść do map sąsiednich.


METAR-TAF: